createdAt,value
2024-02-19T00:00:17.132Z,54.30
2024-02-19T00:02:45.775Z,48.35
2024-02-19T00:05:14.175Z,49.78
2024-02-19T00:07:42.790Z,49.60
2024-02-19T00:10:12.690Z,41.17
2024-02-19T00:12:41.090Z,43.55
2024-02-19T00:15:10.531Z,38.65
2024-02-19T00:17:39.145Z,48.47
2024-02-19T00:20:09.457Z,45.13
2024-02-19T00:22:37.836Z,55.55
2024-02-19T00:25:06.932Z,39.30
2024-02-19T00:27:36.716Z,49.05
2024-02-19T00:30:06.477Z,40.00
2024-02-19T00:32:34.979Z,39.47
2024-02-19T00:35:03.456Z,40.47
2024-02-19T00:37:31.793Z,47.97
2024-02-19T00:40:00.280Z,39.17
2024-02-19T00:42:29.198Z,46.03
2024-02-19T00:44:59.282Z,37.97
2024-02-19T00:47:27.690Z,45.80
2024-02-19T00:49:56.876Z,43.33
2024-02-19T00:52:25.292Z,36.55
2024-02-19T00:54:53.655Z,42.70
2024-02-19T00:57:22.000Z,39.33
2024-02-19T00:59:50.283Z,39.95
2024-02-19T01:02:20.639Z,38.33
2024-02-19T01:04:50.479Z,36.72
2024-02-19T01:07:18.982Z,32.85
2024-02-19T01:09:47.339Z,35.75
2024-02-19T01:12:15.857Z,43.97
2024-02-19T01:14:44.674Z,36.92
2024-02-19T01:17:12.992Z,36.10
2024-02-19T01:19:42.812Z,37.55
2024-02-19T01:22:11.448Z,38.60
2024-02-19T01:24:40.313Z,35.13
2024-02-19T01:27:08.727Z,35.25
2024-02-19T01:29:37.093Z,26.80
2024-02-19T01:32:06.426Z,39.60
2024-02-19T01:34:34.885Z,36.13
2024-02-19T01:37:06.080Z,22.10
2024-02-19T01:39:34.784Z,39.85
2024-02-19T01:42:04.676Z,30.83
2024-02-19T01:44:33.173Z,31.70
2024-02-19T01:47:01.648Z,28.35
2024-02-19T01:49:30.653Z,34.03
2024-02-19T01:52:00.338Z,30.17
2024-02-19T01:54:30.120Z,36.37
2024-02-19T01:56:58.439Z,34.87
2024-02-19T01:59:28.599Z,30.80
2024-02-19T02:01:57.803Z,28.02
2024-02-19T02:04:28.009Z,35.70
2024-02-19T02:06:56.990Z,31.23
2024-02-19T02:09:25.630Z,31.95
2024-02-19T02:11:55.383Z,28.05
2024-02-19T02:14:23.826Z,27.63
2024-02-19T02:16:52.164Z,28.77
2024-02-19T02:19:20.607Z,28.40
2024-02-19T02:21:49.955Z,28.27
2024-02-19T02:24:19.775Z,27.92
2024-02-19T02:26:49.450Z,29.60
2024-02-19T02:29:17.783Z,24.33
2024-02-19T02:31:46.112Z,25.25
2024-02-19T02:34:14.685Z,22.67
2024-02-19T02:36:43.295Z,29.73
2024-02-19T02:39:11.741Z,25.45
2024-02-19T02:41:40.160Z,26.30
2024-02-19T02:44:10.048Z,23.13
2024-02-19T02:46:38.315Z,29.20
2024-02-19T02:49:06.804Z,23.92
2024-02-19T02:51:35.433Z,25.00
2024-02-19T02:54:03.831Z,22.98
2024-02-19T02:56:32.139Z,22.73
2024-02-19T02:59:00.493Z,21.60
2024-02-19T03:01:31.777Z,22.25
2024-02-19T03:04:00.437Z,19.80
2024-02-19T03:06:28.923Z,19.35
2024-02-19T03:08:57.372Z,31.38
2024-02-19T03:11:25.834Z,28.88
2024-02-19T03:13:54.370Z,22.42
2024-02-19T03:16:23.029Z,30.15
2024-02-19T03:18:54.846Z,21.90
2024-02-19T03:21:23.594Z,21.25
2024-02-19T03:23:53.444Z,21.67
2024-02-19T03:26:37.027Z,20.27
2024-02-19T03:29:15.040Z,21.55
2024-02-19T03:31:45.037Z,18.17
2024-02-19T03:34:14.969Z,25.25
2024-02-19T03:36:51.036Z,20.83
2024-02-19T03:39:19.913Z,19.63
2024-02-19T03:41:49.024Z,24.00
2024-02-19T03:44:17.810Z,23.15
2024-02-19T03:46:47.063Z,20.38
2024-02-19T03:49:17.077Z,20.10
2024-02-19T03:51:45.903Z,21.98
2024-02-19T03:54:14.638Z,19.95
2024-02-19T03:56:43.250Z,22.17
2024-02-19T03:59:12.562Z,25.35
2024-02-19T04:01:41.033Z,22.77
2024-02-19T04:04:09.545Z,23.80
2024-02-19T04:06:39.408Z,20.15
2024-02-19T04:09:07.819Z,20.02
2024-02-19T04:11:36.399Z,18.55
2024-02-19T04:14:04.801Z,21.02
2024-02-19T04:16:33.158Z,18.13
2024-02-19T04:19:01.616Z,17.08
2024-02-19T04:21:30.068Z,25.88
2024-02-19T04:23:59.789Z,17.65
2024-02-19T04:26:28.144Z,28.80
2024-02-19T04:28:57.468Z,20.50
2024-02-19T04:31:25.882Z,21.02
2024-02-19T04:33:54.369Z,16.10
2024-02-19T04:36:22.797Z,19.45
2024-02-19T04:38:51.244Z,22.08
2024-02-19T04:41:21.102Z,22.25
2024-02-19T04:43:49.436Z,19.90
2024-02-19T04:46:18.059Z,18.25
2024-02-19T04:48:46.837Z,18.83
2024-02-19T04:51:15.345Z,20.38
2024-02-19T04:53:43.933Z,21.13
2024-02-19T04:56:16.804Z,18.65
2024-02-19T04:58:46.697Z,20.55
2024-02-19T05:01:15.185Z,22.83
2024-02-19T05:03:43.704Z,19.48
2024-02-19T05:06:12.106Z,29.13
2024-02-19T05:08:40.533Z,21.02
2024-02-19T05:11:09.587Z,19.35
2024-02-19T05:13:37.957Z,19.00
2024-02-19T05:16:08.870Z,22.73
2024-02-19T05:18:37.585Z,16.35
2024-02-19T05:21:07.402Z,20.55
2024-02-19T05:23:36.172Z,26.80
2024-02-19T05:26:07.626Z,19.75
2024-02-19T05:28:38.006Z,19.98
2024-02-19T05:31:07.931Z,19.02
2024-02-19T05:33:36.334Z,19.23
2024-02-19T05:36:04.899Z,17.90
2024-02-19T05:38:35.468Z,19.42
2024-02-19T05:41:05.454Z,19.25
2024-02-19T05:43:33.791Z,23.00
2024-02-19T05:46:02.324Z,22.50
2024-02-19T05:48:32.391Z,19.00
2024-02-19T05:51:04.501Z,18.05
2024-02-19T05:53:33.583Z,17.83
2024-02-19T05:56:02.123Z,16.55
2024-02-19T05:58:30.588Z,21.52
2024-02-19T06:00:59.220Z,21.80
2024-02-19T06:03:27.883Z,21.95
2024-02-19T06:05:57.656Z,17.17
2024-02-19T06:08:26.030Z,20.05
2024-02-19T06:10:55.529Z,19.10
2024-02-19T06:13:23.975Z,18.00
2024-02-19T06:15:52.425Z,23.33
2024-02-19T06:18:20.915Z,22.58
2024-02-19T06:20:49.933Z,20.63
2024-02-19T06:23:19.735Z,23.52
2024-02-19T06:25:48.123Z,17.35
2024-02-19T06:28:16.683Z,27.27
2024-02-19T06:30:45.474Z,21.33
2024-02-19T06:33:14.068Z,23.25
2024-02-19T06:35:42.566Z,25.63
2024-02-19T06:38:11.023Z,24.50
2024-02-19T06:40:40.775Z,20.25
2024-02-19T06:43:09.236Z,23.70
2024-02-19T06:45:37.701Z,22.92
2024-02-19T06:48:07.729Z,25.48
2024-02-19T06:50:36.199Z,27.48
2024-02-19T06:53:07.170Z,24.00
2024-02-19T06:55:35.501Z,24.05
2024-02-19T06:58:05.630Z,23.08
2024-02-19T07:00:34.187Z,24.75
2024-02-19T07:03:02.613Z,18.48
2024-02-19T07:05:31.146Z,25.00
2024-02-19T07:07:59.569Z,23.52
2024-02-19T07:10:28.053Z,26.48
2024-02-19T07:12:56.526Z,25.58
2024-02-19T07:15:26.236Z,28.85
2024-02-19T07:17:54.653Z,24.10
2024-02-19T07:20:22.987Z,24.98
2024-02-19T07:22:51.419Z,24.92
2024-02-19T07:25:21.964Z,24.33
2024-02-19T07:27:51.173Z,21.40
2024-02-19T07:30:20.110Z,25.88
2024-02-19T07:32:49.858Z,25.30
2024-02-19T07:35:18.228Z,31.93
2024-02-19T07:37:46.537Z,27.35
2024-02-19T07:40:15.110Z,23.30
2024-02-19T07:42:43.859Z,24.73
2024-02-19T07:45:12.477Z,22.13
2024-02-19T07:47:40.965Z,20.83
2024-02-19T07:50:11.653Z,23.60
2024-02-19T07:55:09.357Z,19.60
2024-02-19T07:57:37.783Z,20.85
2024-02-19T08:00:10.472Z,19.02
2024-02-19T08:02:38.858Z,21.52
2024-02-19T08:05:08.371Z,20.25
2024-02-19T08:07:38.569Z,19.63
2024-02-19T08:10:08.305Z,19.52
2024-02-19T08:12:40.371Z,21.37
2024-02-19T08:15:11.831Z,18.67
2024-02-19T08:17:40.249Z,21.15
2024-02-19T08:20:11.048Z,23.85
2024-02-19T08:25:13.605Z,19.45
2024-02-19T08:27:41.975Z,24.08
2024-02-19T08:30:11.171Z,18.77
2024-02-19T08:32:39.564Z,18.30
2024-02-19T08:35:08.384Z,18.33
2024-02-19T08:37:37.002Z,19.60
2024-02-19T08:40:09.185Z,22.67
2024-02-19T08:42:38.288Z,28.65
2024-02-19T08:45:09.297Z,25.38
2024-02-19T08:47:38.273Z,24.33
2024-02-19T08:50:08.097Z,21.67
2024-02-19T08:52:36.571Z,25.13
2024-02-19T08:55:07.030Z,21.75
2024-02-19T08:57:35.657Z,27.52
2024-02-19T09:00:05.689Z,21.92
2024-02-19T09:02:34.165Z,21.70
2024-02-19T09:05:02.595Z,17.67
2024-02-19T09:07:31.122Z,21.73
2024-02-19T09:09:59.633Z,20.20
2024-02-19T09:12:29.332Z,21.15
2024-02-19T09:14:59.476Z,20.40
2024-02-19T09:17:28.174Z,19.88
2024-02-19T09:19:57.135Z,18.55
2024-02-19T09:22:25.716Z,19.77
2024-02-19T09:24:54.136Z,21.30
2024-02-19T09:27:22.572Z,21.73
2024-02-19T09:29:52.303Z,21.25
2024-02-19T09:32:20.748Z,22.20
2024-02-19T09:34:49.228Z,18.98
2024-02-19T09:37:17.648Z,19.55
2024-02-19T09:39:51.041Z,19.98
2024-02-19T09:42:19.642Z,17.15
2024-02-19T09:44:48.051Z,26.83
2024-02-19T09:47:20.805Z,15.93
2024-02-19T09:49:49.963Z,18.52
2024-02-19T09:52:26.898Z,14.88
2024-02-19T09:54:58.002Z,26.42
2024-02-19T09:57:29.470Z,20.23
2024-02-19T09:59:59.718Z,23.38
2024-02-19T10:02:30.214Z,22.00
2024-02-19T10:05:00.702Z,17.05
2024-02-19T10:09:58.659Z,19.35
2024-02-19T10:12:27.021Z,18.13
2024-02-19T10:14:55.379Z,17.15
2024-02-19T10:17:24.349Z,17.20
2024-02-19T10:20:03.216Z,20.27
2024-02-19T10:22:31.613Z,14.77
2024-02-19T10:25:01.809Z,17.33
2024-02-19T10:27:32.240Z,15.40
2024-02-19T10:30:01.875Z,18.58
2024-02-19T10:32:30.677Z,15.02
2024-02-19T10:34:59.235Z,16.50
2024-02-19T10:37:28.991Z,20.17
2024-02-19T10:39:57.461Z,21.40
2024-02-19T10:42:26.045Z,18.08
2024-02-19T10:44:55.208Z,23.92
2024-02-19T10:47:25.007Z,26.02
2024-02-19T10:50:00.508Z,19.43
2024-02-19T10:52:32.765Z,23.35
2024-02-19T10:55:10.661Z,22.88
2024-02-19T10:57:51.506Z,22.52
2024-02-19T11:00:26.239Z,25.70
2024-02-19T11:03:06.098Z,23.08
2024-02-19T11:05:39.289Z,17.80
2024-02-19T11:08:21.102Z,19.42
2024-02-19T11:10:50.964Z,30.33
2024-02-19T11:13:22.122Z,23.23
2024-02-19T11:15:50.809Z,25.95
2024-02-19T11:18:20.716Z,23.85
2024-02-19T11:20:50.870Z,20.58
2024-02-19T11:23:21.794Z,31.15
2024-02-19T11:25:50.476Z,22.15
2024-02-19T11:28:18.956Z,34.00
2024-02-19T11:30:48.157Z,34.72
2024-02-19T11:33:16.762Z,30.35
2024-02-19T11:35:45.889Z,28.45
2024-02-19T11:38:14.326Z,25.23
2024-02-19T11:40:44.120Z,29.05
2024-02-19T11:43:12.782Z,35.50
2024-02-19T11:45:41.472Z,27.85
2024-02-19T11:48:10.387Z,24.58
2024-02-19T11:50:40.581Z,25.50
2024-02-19T11:53:10.391Z,28.75
2024-02-19T11:55:40.176Z,25.30
2024-02-19T11:58:11.538Z,29.20
2024-02-19T12:00:40.166Z,25.10
2024-02-19T12:03:09.122Z,30.83
2024-02-19T12:05:38.136Z,24.67
2024-02-19T12:08:07.338Z,24.73
2024-02-19T12:10:36.501Z,19.92
2024-02-19T12:13:05.304Z,23.52
2024-02-19T12:15:35.116Z,24.08
2024-02-19T12:18:03.802Z,23.87
2024-02-19T12:20:32.771Z,18.90
2024-02-19T12:23:01.384Z,24.60
2024-02-19T12:25:29.785Z,28.75
2024-02-19T12:27:58.168Z,23.70
2024-02-19T12:30:26.639Z,23.80
2024-02-19T12:32:56.949Z,24.08
2024-02-19T12:35:25.534Z,34.58
2024-02-19T12:37:54.086Z,24.70
2024-02-19T12:40:22.558Z,23.08
2024-02-19T12:42:51.319Z,26.13
2024-02-19T12:45:21.133Z,28.30
2024-02-19T12:47:49.615Z,19.42
2024-02-19T12:50:20.285Z,25.95
2024-02-19T12:55:19.596Z,28.73
2024-02-19T13:00:17.433Z,24.73
2024-02-19T13:02:46.347Z,27.35
2024-02-19T13:05:15.057Z,26.08
2024-02-19T13:07:48.835Z,29.05
2024-02-19T13:10:17.351Z,21.80
2024-02-19T13:12:46.129Z,32.03
2024-02-19T13:15:15.935Z,26.00
2024-02-19T13:17:46.539Z,23.90
2024-02-19T13:20:15.982Z,31.40
2024-02-19T13:22:46.371Z,23.15
2024-02-19T13:25:15.856Z,21.50
2024-02-19T13:27:45.427Z,24.05
2024-02-19T13:30:15.396Z,27.35
2024-02-19T13:35:33.731Z,23.25
2024-02-19T13:38:04.664Z,27.25
2024-02-19T13:40:33.431Z,21.70
2024-02-19T13:43:02.741Z,29.65
2024-02-19T13:45:58.793Z,21.65
2024-02-19T13:48:28.331Z,29.58
2024-02-19T13:50:58.169Z,25.38
2024-02-19T13:53:29.255Z,24.97
2024-02-19T13:55:59.068Z,27.77
2024-02-19T13:58:29.625Z,30.50
2024-02-19T14:00:59.198Z,22.35
2024-02-19T14:03:27.974Z,25.53
2024-02-19T14:05:56.383Z,23.65
2024-02-19T14:08:25.260Z,23.50
2024-02-19T14:10:56.673Z,29.80
2024-02-19T14:13:25.443Z,22.05
2024-02-19T14:15:53.993Z,26.23
2024-02-19T14:18:22.492Z,23.35
2024-02-19T14:20:50.949Z,26.15
2024-02-19T14:23:19.404Z,27.02
2024-02-19T14:25:50.659Z,31.60
2024-02-19T14:28:22.267Z,25.23
2024-02-19T14:30:50.869Z,25.92
2024-02-19T14:33:19.580Z,25.42
2024-02-19T14:35:48.493Z,24.98
2024-02-19T14:38:16.882Z,28.92
2024-02-19T14:40:45.653Z,28.15
2024-02-19T14:43:14.022Z,26.70
2024-02-19T14:45:43.911Z,34.88
2024-02-19T14:48:12.412Z,26.30
2024-02-19T14:50:41.688Z,36.03
2024-02-19T14:53:10.278Z,25.00
2024-02-19T14:55:38.639Z,31.27
2024-02-19T14:58:07.745Z,26.75
2024-02-19T15:00:37.268Z,25.48
2024-02-19T15:03:11.198Z,28.35
2024-02-19T15:05:40.654Z,29.58
2024-02-19T15:08:11.174Z,31.45
2024-02-19T15:10:39.597Z,27.55
2024-02-19T15:13:08.069Z,25.70
2024-02-19T15:15:36.503Z,27.73
2024-02-19T15:18:07.086Z,24.20
2024-02-19T15:23:06.285Z,31.20
2024-02-19T15:25:35.323Z,31.15
2024-02-19T15:28:04.255Z,31.73
2024-02-19T15:30:32.583Z,27.13
2024-02-19T15:33:01.073Z,27.88
2024-02-19T15:35:31.019Z,27.90
2024-02-19T15:38:00.232Z,29.67
2024-02-19T15:40:28.612Z,26.65
2024-02-19T15:42:57.112Z,30.65
2024-02-19T15:45:25.589Z,26.85
2024-02-19T15:47:53.937Z,26.75
2024-02-19T15:50:22.756Z,31.98
2024-02-19T15:52:58.870Z,35.17
2024-02-19T15:55:33.764Z,31.38
2024-02-19T15:58:02.259Z,33.50
2024-02-19T16:00:33.418Z,35.45
2024-02-19T16:03:01.829Z,30.98
2024-02-19T16:05:30.185Z,34.92
2024-02-19T16:08:00.037Z,39.85
2024-02-19T16:10:29.756Z,34.33
2024-02-19T16:12:58.447Z,34.87
2024-02-19T16:15:26.804Z,43.47
2024-02-19T16:17:55.228Z,47.03
2024-02-19T16:20:23.605Z,35.38
2024-02-19T16:22:54.884Z,33.78
2024-02-19T16:25:24.973Z,33.22
2024-02-19T16:27:54.399Z,31.42
2024-02-19T16:30:23.463Z,39.47
2024-02-19T16:32:51.925Z,34.47
2024-02-19T16:35:20.569Z,34.58
2024-02-19T16:37:49.195Z,36.45
2024-02-19T16:40:17.637Z,41.90
2024-02-19T16:42:47.408Z,39.45
2024-02-19T16:45:15.881Z,41.67
2024-02-19T16:47:44.250Z,40.58
2024-02-19T16:50:12.760Z,44.22
2024-02-19T16:52:41.307Z,46.60
2024-02-19T16:55:10.650Z,38.35
2024-02-19T16:57:39.065Z,36.58
2024-02-19T17:00:10.891Z,36.40
2024-02-19T17:02:39.569Z,39.10
2024-02-19T17:05:09.352Z,44.42
2024-02-19T17:07:38.166Z,45.95
2024-02-19T17:10:08.469Z,43.05
2024-02-19T17:12:36.842Z,44.28
2024-02-19T17:15:05.714Z,39.13
2024-02-19T17:17:35.480Z,42.08
2024-02-19T17:20:04.696Z,35.50
2024-02-19T17:22:33.189Z,37.92
2024-02-19T17:25:01.662Z,42.53
2024-02-19T17:27:30.206Z,39.38
2024-02-19T17:29:58.540Z,47.97
2024-02-19T17:32:26.998Z,41.42
2024-02-19T17:34:56.726Z,43.78
2024-02-19T17:37:26.855Z,45.23
2024-02-19T17:39:55.843Z,41.20
2024-02-19T17:42:25.371Z,40.72
2024-02-19T17:44:53.777Z,36.13
2024-02-19T17:47:22.744Z,45.00
2024-02-19T17:49:51.133Z,59.47
2024-02-19T17:52:20.920Z,38.20
2024-02-19T17:54:49.309Z,40.10
2024-02-19T17:57:17.694Z,50.60
2024-02-19T17:59:46.162Z,47.50
2024-02-19T18:02:14.880Z,41.85
2024-02-19T18:04:47.449Z,47.13
2024-02-19T18:07:15.828Z,42.72
2024-02-19T18:09:45.746Z,42.33
2024-02-19T18:12:14.134Z,44.75
2024-02-19T18:14:42.712Z,38.58
2024-02-19T18:17:11.205Z,36.45
2024-02-19T18:19:40.895Z,43.63
2024-02-19T18:22:10.994Z,51.97
2024-02-19T18:24:40.048Z,45.53
2024-02-19T18:27:10.577Z,51.95
2024-02-19T18:29:39.373Z,43.85
2024-02-19T18:32:08.792Z,50.50
2024-02-19T18:34:37.212Z,54.65
2024-02-19T18:37:06.306Z,48.97
2024-02-19T18:39:35.786Z,50.83
2024-02-19T18:42:05.659Z,52.35
2024-02-19T18:44:35.349Z,37.45
2024-02-19T18:47:04.451Z,44.23
2024-02-19T18:49:34.913Z,38.72
2024-02-19T18:52:03.487Z,43.60
2024-02-19T18:54:32.857Z,44.05
2024-02-19T18:57:04.691Z,42.10
2024-02-19T18:59:37.621Z,44.45
2024-02-19T19:02:06.575Z,46.88
2024-02-19T19:04:35.407Z,38.40
2024-02-19T19:07:04.051Z,46.42
2024-02-19T19:09:40.315Z,48.92
2024-02-19T19:12:10.420Z,46.38
2024-02-19T19:14:41.568Z,41.38
2024-02-19T19:17:10.166Z,34.90
2024-02-19T19:19:39.678Z,47.42
2024-02-19T19:22:08.612Z,38.17
2024-02-19T19:24:36.998Z,47.00
2024-02-19T19:27:06.287Z,51.35
2024-02-19T19:29:34.649Z,47.72
2024-02-19T19:32:05.904Z,43.97
2024-02-19T19:34:34.418Z,52.13
2024-02-19T19:37:02.889Z,47.63
2024-02-19T19:39:31.197Z,46.28
2024-02-19T19:41:59.559Z,46.03
2024-02-19T19:44:27.870Z,55.97
2024-02-19T19:46:57.557Z,43.80
2024-02-19T19:49:27.405Z,51.63
2024-02-19T19:51:56.881Z,38.65
2024-02-19T19:54:25.376Z,46.13
2024-02-19T19:56:53.773Z,47.80
2024-02-19T19:59:22.163Z,56.38
2024-02-19T20:01:51.093Z,49.17
2024-02-19T20:04:20.870Z,44.80
2024-02-19T20:06:50.978Z,46.23
2024-02-19T20:09:20.489Z,46.95
2024-02-19T20:11:48.896Z,52.95
2024-02-19T20:14:17.294Z,50.88
2024-02-19T20:16:45.692Z,43.10
2024-02-19T20:19:14.570Z,45.10
2024-02-19T20:21:42.929Z,47.90
2024-02-19T20:24:12.622Z,43.60
2024-02-19T20:26:41.948Z,49.50
2024-02-19T20:29:11.449Z,45.10
2024-02-19T20:31:39.853Z,50.75
2024-02-19T20:34:08.485Z,49.20
2024-02-19T20:36:38.852Z,48.75
2024-02-19T20:39:10.386Z,49.95
2024-02-19T20:41:43.885Z,50.35
2024-02-19T20:44:12.287Z,67.00
2024-02-19T20:46:40.898Z,41.75
2024-02-19T20:49:09.259Z,47.50
2024-02-19T20:51:37.654Z,50.60
2024-02-19T20:54:06.333Z,44.83
2024-02-19T20:56:34.765Z,41.85
2024-02-19T20:59:04.907Z,44.20
2024-02-19T21:01:35.057Z,37.78
2024-02-19T21:04:06.034Z,46.33
2024-02-19T21:06:34.523Z,39.63
2024-02-19T21:09:03.020Z,40.00
2024-02-19T21:11:32.579Z,42.50
2024-02-19T21:14:01.380Z,43.10
2024-02-19T21:16:31.216Z,41.33
2024-02-19T21:19:00.666Z,42.88
2024-02-19T21:21:34.551Z,42.60
2024-02-19T21:24:04.126Z,40.83
2024-02-19T21:26:32.789Z,49.00
2024-02-19T21:29:01.205Z,45.65
2024-02-19T21:31:31.249Z,39.55
2024-02-19T21:33:59.957Z,42.88
2024-02-19T21:36:28.499Z,43.03
2024-02-19T21:38:56.957Z,37.88
2024-02-19T21:41:25.513Z,44.67
2024-02-19T21:43:53.804Z,40.85
2024-02-19T21:46:22.210Z,36.55
2024-02-19T21:48:54.621Z,39.83
2024-02-19T21:51:23.319Z,48.20
2024-02-19T21:53:51.658Z,40.10
2024-02-19T21:56:20.543Z,37.90
2024-02-19T21:58:48.964Z,34.88
2024-02-19T22:01:17.521Z,36.65
2024-02-19T22:03:46.040Z,31.75
2024-02-19T22:06:15.805Z,39.22
2024-02-19T22:08:44.310Z,37.10
2024-02-19T22:11:14.500Z,45.92
2024-02-19T22:13:42.997Z,42.75
2024-02-19T22:16:11.435Z,44.25
2024-02-19T22:18:39.828Z,39.25
2024-02-19T22:21:08.137Z,44.63
2024-02-19T22:23:37.823Z,43.50
2024-02-19T22:26:06.423Z,40.67
2024-02-19T22:28:36.302Z,52.88
2024-02-19T22:31:07.076Z,45.35
2024-02-19T22:33:36.718Z,40.70
2024-02-19T22:36:05.877Z,41.15
2024-02-19T22:38:34.232Z,39.95
2024-02-19T22:41:04.030Z,45.83
2024-02-19T22:43:32.453Z,42.30
2024-02-19T22:46:00.857Z,41.80
2024-02-19T22:48:29.392Z,41.90
2024-02-19T22:50:57.903Z,44.17
2024-02-19T22:53:26.246Z,40.47
2024-02-19T22:55:54.829Z,50.08
2024-02-19T22:58:31.694Z,41.20
2024-02-19T23:01:03.388Z,41.05
2024-02-19T23:03:32.166Z,41.15
2024-02-19T23:06:00.552Z,37.78
2024-02-19T23:08:28.908Z,46.55
2024-02-19T23:10:57.348Z,45.38
2024-02-19T23:13:27.148Z,33.95
2024-02-19T23:15:55.490Z,46.30
2024-02-19T23:18:24.239Z,42.53
2024-02-19T23:20:52.742Z,42.15
2024-02-19T23:23:21.152Z,34.83
2024-02-19T23:25:53.883Z,40.50
2024-02-19T23:28:23.056Z,40.38
2024-02-19T23:30:53.485Z,44.42
2024-02-19T23:33:22.323Z,38.67
2024-02-19T23:35:50.921Z,36.58
2024-02-19T23:38:23.585Z,38.13
2024-02-19T23:40:52.317Z,43.88
2024-02-19T23:43:20.996Z,40.00
2024-02-19T23:45:49.751Z,41.85
2024-02-19T23:48:19.656Z,40.13
2024-02-19T23:50:48.491Z,39.35
2024-02-19T23:53:17.209Z,31.80
2024-02-19T23:55:45.680Z,42.30
2024-02-19T23:58:14.214Z,46.47
